This is the latest recevied weather packets stored in our database for station/object OE5HMR-13. If no packets are shown the sender has not sent any weather packets the latest 10 day(s).
| Time | Temp. | Humidity | Pressure | Rain* | Wind** | Luminosity | Snow |
|---|---|---|---|---|---|---|---|
| 1777883740 | 18.89° C | 46% | 1014.5 hPa | 0 mm | - | - | - |
| 1777877144 | 15° C | 58% | 1013.4 hPa | 0 mm | - | - | - |
| 1777875934 | 13.89° C | 63% | 1013.4 hPa | 0 mm | - | - | - |
| 1777874739 | 12.22° C | 63% | 1013.4 hPa | 0 mm | - | - | - |
| 1777873535 | 11.11° C | 64% | 1013.4 hPa | 0 mm | - | - | - |
| 1777866962 | 8.89° C | 58% | 1012.4 hPa | 0 mm | - | - | - |
| 1777856137 | 8.89° C | 55% | 1012.4 hPa | 0 mm | - | - | - |
| 1777850131 | 11.67° C | 50% | 1012.4 hPa | 0 mm | - | - | - |
| 1777848953 | 11.67° C | 49% | 1012.4 hPa | 0 mm | - | - | - |
| 1777847730 | 12.22° C | 48% | 1012.4 hPa | 0 mm | - | - | - |
| 1777844755 | 12.22° C | 46% | 1013.3 hPa | 0 mm | - | - | - |
| 1777844136 | 12.22° C | 45% | 1012.4 hPa | 0 mm | - | - | - |
| 1777840540 | 14.44° C | 40% | 1013.4 hPa | 0 mm | - | - | - |
| 1777839948 | 15° C | 39% | 1013.4 hPa | 0 mm | - | - | - |
| 1777838732 | 15.56° C | 38% | 1013.4 hPa | 0 mm | - | - | - |
| 1777837535 | 15.56° C | 38% | 1013.4 hPa | 0 mm | - | - | - |
| 1777833358 | 16.67° C | 34% | 1013.4 hPa | 0 mm | - | - | - |
| 1777826169 | 23.33° C | 25% | 1014.5 hPa | 0 mm | - | - | - |
| 1777822530 | 25° C | 17% | 1014.5 hPa | 0 mm | - | - | - |
| 1777821935 | 25.56° C | 16% | - | 0 mm | - | - | - |
| 1777821333 | 25° C | 16% | 1014.5 hPa | 0 mm | - | - | - |
| 1777820129 | 25.56° C | 16% | 1014.5 hPa | 0 mm | - | - | - |
| 1777817133 | 25.56° C | 15% | 1015.6 hPa | 0 mm | - | - | - |
| 1777814144 | 25° C | 16% | 1015.6 hPa | 0 mm | - | - | - |
| 1777812339 | 25° C | 17% | 1015.6 hPa | 0 mm | - | - | - |
* Rain latest hour (hover to see other rain measurements)
** Current wind speed in m/s (hover to see current wind gust speed)